Time;durP1;ratioP1;P1;durP2;ratioP2;P2;SDS_P1;SDS_P2;PMS_P1;PMS_P2;Temp;Humidity;BMP_temperature;BMP_pressure;BME280_temperature;BME280_humidity;BME280_pressure;Samples;Min_cycle;Max_cycle;Signal;HPM_P1;HPM_P2
2021/12/18 00:01:51;;;;;;;4.75;1.90;;;;;;;0.02;85.66;99734.93;1754074;81;21003;-69
2021/12/18 00:04:19;;;;;;;3.08;1.55;;;;;;;0.04;85.38;99736.84;1754083;81;20967;-66
2021/12/18 00:06:46;;;;;;;1.85;1.20;;;;;;;0.04;85.32;99736.84;1696143;83;21995;-66
2021/12/18 00:09:15;;;;;;;5.40;1.67;;;;;;;0.01;84.99;99734.09;1727144;83;20876;-66
2021/12/18 00:11:45;;;;;;;3.22;1.47;;;;;;;0.02;85.10;99731.66;1726501;81;21012;-65
2021/12/18 00:14:14;;;;;;;2.95;1.50;;;;;;;0.04;84.82;99739.55;1696259;83;21004;-66
2021/12/18 00:16:40;;;;;;;5.15;2.37;;;;;;;0.02;84.74;99735.73;1727578;83;21017;-67
2021/12/18 00:19:09;;;;;;;4.85;2.10;;;;;;;0.02;84.69;99739.80;1727843;83;21763;-66
2021/12/18 00:21:37;;;;;;;3.50;2.00;;;;;;;0.01;84.58;99746.81;1727500;83;20996;-67
2021/12/18 00:24:07;;;;;;;4.22;1.70;;;;;;;0.01;84.33;99738.69;1754427;81;20975;-68
2021/12/18 00:26:36;;;;;;;5.22;2.25;;;;;;;-0.02;84.51;99742.16;1696740;83;20996;-66
2021/12/18 00:29:05;;;;;;;7.03;2.67;;;;;;;-0.01;84.81;99748.41;1727359;83;21043;-67
2021/12/18 00:31:34;;;;;;;6.05;2.50;;;;;;;-0.03;85.60;99743.24;1754254;81;21153;-69
2021/12/18 00:34:01;;;;;;;3.17;1.82;;;;;;;-0.03;85.78;99751.38;1727677;83;20979;-68
2021/12/18 00:36:31;;;;;;;5.45;1.67;;;;;;;-0.04;85.62;99742.13;1754347;81;20967;-67
2021/12/18 00:38:59;;;;;;;3.80;1.75;;;;;;;-0.03;85.09;99748.66;1727858;83;21055;-67
2021/12/18 00:44:03;;;;;;;5.12;1.57;;;;;;;-0.03;85.32;99748.66;1697889;83;21179;-68
2021/12/18 00:46:43;;;;;;;7.15;2.02;;;;;;;-0.04;85.27;99757.87;1727454;83;20943;-67
2021/12/18 00:49:12;;;;;;;2.50;1.40;;;;;;;-0.06;85.43;99749.16;1754105;81;20916;-67
2021/12/18 00:51:43;;;;;;;2.85;1.40;;;;;;;-0.03;85.57;99755.44;1727658;83;20980;-67
2021/12/18 00:54:09;;;;;;;3.10;1.32;;;;;;;0.01;85.44;99754.95;1754313;81;21034;-66
2021/12/18 00:56:39;;;;;;;5.83;1.30;;;;;;;0.00;85.77;99760.92;1722683;83;21159;-66
2021/12/18 00:59:05;;;;;;;3.17;1.30;;;;;;;0.01;85.54;99767.14;1723547;83;21417;-68
2021/12/18 01:01:33;;;;;;;1.87;1.17;;;;;;;-0.01;85.57;99772.28;1727744;83;21464;-68
2021/12/18 01:04:02;;;;;;;3.45;2.12;;;;;;;-0.04;86.31;99770.06;1727619;83;21007;-67
2021/12/18 01:06:30;;;;;;;3.17;1.92;;;;;;;-0.05;86.45;99767.59;1727713;82;21015;-67
2021/12/18 01:09:01;;;;;;;3.62;2.15;;;;;;;-0.06;85.47;99768.64;1723137;83;21152;-68
2021/12/18 01:11:39;;;;;;;2.77;1.40;;;;;;;-0.08;85.53;99766.18;1700749;83;20988;-70
2021/12/18 01:16:56;;;;;;;3.75;1.57;;;;;;;-0.05;85.49;99773.02;1700974;83;20990;-65
2021/12/18 01:24:49;;;;;;;3.62;1.90;;;;;;;-0.10;85.67;99779.70;1727665;83;21346;-67
2021/12/18 01:27:15;;;;;;;3.02;1.20;;;;;;;-0.10;85.73;99779.14;1754294;81;21002;-67
2021/12/18 01:29:42;;;;;;;4.10;1.87;;;;;;;-0.07;85.70;99784.62;1696861;83;21456;-68
2021/12/18 01:32:09;;;;;;;4.92;2.50;;;;;;;-0.11;85.85;99788.34;1703184;83;20991;-71
2021/12/18 01:34:36;;;;;;;5.40;2.47;;;;;;;-0.13;86.08;99783.17;1703498;83;21889;-67
2021/12/18 01:37:03;;;;;;;3.33;1.90;;;;;;;-0.11;86.10;99784.80;1735959;82;20974;-66
2021/12/18 01:39:29;;;;;;;3.40;1.85;;;;;;;-0.13;86.05;99787.76;1726039;83;21509;-66
2021/12/18 01:42:18;;;;;;;2.25;1.67;;;;;;;-0.14;85.95;99782.06;1703515;83;20972;-69
2021/12/18 01:52:32;;;;;;;7.22;2.80;;;;;;;-0.22;86.06;99779.19;1736059;82;20892;-67
2021/12/18 01:54:47;;;;;;;5.03;1.90;;;;;;;-0.23;85.98;99781.62;1733505;82;20928;-67
2021/12/18 01:57:15;;;;;;;5.12;1.87;;;;;;;-0.27;85.98;99783.98;1757534;81;20924;-67
2021/12/18 01:59:46;;;;;;;3.95;1.50;;;;;;;-0.29;86.08;99786.11;1712789;82;22021;-67
2021/12/18 02:02:13;;;;;;;4.80;2.05;;;;;;;-0.30;86.02;99787.70;1757926;81;21476;-66
2021/12/18 02:04:40;;;;;;;4.10;1.62;;;;;;;-0.29;85.87;99787.46;1736219;82;21089;-68
2021/12/18 02:07:07;;;;;;;2.20;0.88;;;;;;;-0.30;86.02;99784.47;1757853;81;20944;-67
2021/12/18 02:10:03;;;;;;;3.00;1.50;;;;;;;-0.33;85.40;99788.19;1726068;83;20959;-67
2021/12/18 02:12:08;;;;;;;3.00;1.60;;;;;;;-0.35;85.82;99782.19;1728387;82;21043;-67
2021/12/18 02:23:00;;;;;;;2.20;0.95;;;;;;;-0.35;85.73;99787.60;1736014;82;21046;-66
2021/12/18 02:25:30;;;;;;;2.08;1.27;;;;;;;-0.36;85.70;99789.51;1734265;81;21678;-65
2021/12/18 02:27:55;;;;;;;1.00;0.80;;;;;;;-0.37;85.55;99782.42;1725764;83;21406;-65
2021/12/18 02:30:22;;;;;;;2.98;1.10;;;;;;;-0.36;85.66;99788.16;1730969;82;21027;-66
2021/12/18 02:32:49;;;;;;;3.55;1.30;;;;;;;-0.37;85.16;99791.38;1729696;83;20924;-69
2021/12/18 02:35:36;;;;;;;3.58;1.20;;;;;;;-0.39;85.24;99788.61;1699008;84;20890;-67
2021/12/18 02:38:16;;;;;;;4.10;1.40;;;;;;;-0.39;85.35;99789.96;1699169;84;21684;-65
2021/12/18 02:41:05;;;;;;;2.20;1.47;;;;;;;-0.41;85.13;99795.63;1698105;84;21066;-68
2021/12/18 02:43:30;;;;;;;1.57;0.80;;;;;;;-0.39;84.88;99802.98;1709843;83;20924;-66
2021/12/18 02:46:00;;;;;;;4.00;1.98;;;;;;;-0.39;84.27;99804.34;1666622;83;20964;-68
2021/12/18 02:48:28;;;;;;;5.20;2.42;;;;;;;-0.39;84.48;99812.98;1729581;83;21428;-66
2021/12/18 02:50:59;;;;;;;2.37;1.40;;;;;;;-0.39;84.18;99815.69;1699175;84;21137;-66
2021/12/18 02:53:26;;;;;;;3.70;1.35;;;;;;;-0.41;83.88;99819.99;1698931;84;20947;-65
2021/12/18 02:55:58;;;;;;;2.62;1.20;;;;;;;-0.41;83.67;99832.17;1674643;84;21011;-67
2021/12/18 02:58:26;;;;;;;4.78;1.65;;;;;;;-0.41;83.70;99831.38;1699014;84;21001;-64
2021/12/18 03:00:54;;;;;;;3.35;1.50;;;;;;;-0.43;83.72;99830.78;1699341;84;20982;-68
2021/12/18 03:03:24;;;;;;;4.03;1.32;;;;;;;-0.41;84.01;99839.50;1674697;84;21538;-67
2021/12/18 03:08:59;;;;;;;2.35;1.40;;;;;;;-0.40;84.49;99842.49;1711170;83;20937;-67
2021/12/18 03:27:20;;;;;;;1.65;1.05;;;;;;;-0.43;83.70;99845.68;1699216;84;21506;-68
2021/12/18 03:29:47;;;;;;;3.17;1.47;;;;;;;-0.46;83.60;99846.97;1688961;84;21230;-66
2021/12/18 03:32:14;;;;;;;2.58;1.50;;;;;;;-0.45;83.84;99854.56;1754227;81;20984;-65
2021/12/18 03:34:43;;;;;;;6.40;1.20;;;;;;;-0.45;83.94;99853.21;1700536;83;20939;-67
2021/12/18 03:37:09;;;;;;;2.92;1.37;;;;;;;-0.47;84.22;99865.64;1754148;81;21524;-64
2021/12/18 03:39:38;;;;;;;1.92;1.25;;;;;;;-0.48;84.56;99864.52;1754046;81;20944;-66
2021/12/18 03:42:06;;;;;;;3.58;1.75;;;;;;;-0.51;85.14;99862.58;1722552;83;21135;-66
2021/12/18 03:44:33;;;;;;;1.62;1.02;;;;;;;-0.56;86.29;99868.44;1722551;83;20924;-67
2021/12/18 03:47:02;;;;;;;2.30;1.42;;;;;;;-0.62;87.36;99868.84;1727692;83;20947;-65
2021/12/18 03:49:28;;;;;;;3.08;1.40;;;;;;;-0.66;88.21;99871.71;1700534;83;21007;-65
2021/12/18 03:51:58;;;;;;;9.00;2.80;;;;;;;-0.69;87.73;99863.55;1754444;81;20924;-64
2021/12/18 03:54:24;;;;;;;4.33;1.77;;;;;;;-0.70;87.94;99874.61;1722600;83;21112;-67
2021/12/18 03:56:52;;;;;;;2.70;1.55;;;;;;;-0.70;87.94;99874.06;1727711;83;21059;-66
2021/12/18 03:59:22;;;;;;;4.00;1.75;;;;;;;-0.68;87.74;99877.36;1726563;81;20975;-68
2021/12/18 04:01:52;;;;;;;4.17;1.50;;;;;;;-0.66;87.58;99882.54;1727985;83;21047;-66
2021/12/18 04:04:18;;;;;;;4.42;1.45;;;;;;;-0.66;87.56;99885.25;1754266;81;21405;-66
2021/12/18 04:06:50;;;;;;;1.47;0.82;;;;;;;-0.70;87.32;99888.95;1722401;82;21938;-66
2021/12/18 04:09:17;;;;;;;1.95;1.25;;;;;;;-0.71;87.25;99883.25;1727566;83;21106;-66
2021/12/18 04:11:45;;;;;;;3.20;1.50;;;;;;;-0.70;87.34;99890.86;1727440;81;20888;-65
2021/12/18 04:14:13;;;;;;;4.17;1.70;;;;;;;-0.70;87.67;99882.19;1722961;83;20936;-65
2021/12/18 04:16:40;;;;;;;1.85;1.25;;;;;;;-0.69;88.33;99898.73;1696509;83;21094;-64
2021/12/18 04:19:11;;;;;;;2.12;1.47;;;;;;;-0.71;88.78;99889.19;1722694;83;20924;-67
2021/12/18 04:21:38;;;;;;;2.45;1.72;;;;;;;-0.73;88.72;99888.08;1722617;83;21410;-66
2021/12/18 04:24:06;;;;;;;1.75;1.20;;;;;;;-0.72;88.11;99892.97;1722625;83;20968;-66
2021/12/18 04:26:33;;;;;;;2.55;1.60;;;;;;;-0.72;87.51;99891.61;1696133;83;20984;-66
2021/12/18 04:29:01;;;;;;;1.57;0.88;;;;;;;-0.74;87.42;99896.74;1722675;83;20987;-66
2021/12/18 04:31:30;;;;;;;2.62;1.35;;;;;;;-0.77;86.84;99903.95;1724420;83;21828;-65
2021/12/18 04:33:58;;;;;;;5.03;2.10;;;;;;;-0.78;87.03;99905.03;1730442;83;21070;-64
2021/12/18 04:36:24;;;;;;;3.75;2.35;;;;;;;-0.78;86.41;99907.73;1757107;81;20975;-65
2021/12/18 04:38:51;;;;;;;5.20;1.87;;;;;;;-0.75;86.20;99903.75;1700928;83;21015;-66
2021/12/18 04:41:24;;;;;;;2.47;1.32;;;;;;;-0.72;85.94;99905.98;1701042;83;20948;-68
2021/12/18 04:43:51;;;;;;;2.30;1.42;;;;;;;-0.69;84.31;99906.02;1725480;83;21831;-67
2021/12/18 04:46:19;;;;;;;3.72;1.85;;;;;;;-0.69;83.07;99908.73;1706032;83;20987;-70
2021/12/18 04:48:47;;;;;;;1.65;0.93;;;;;;;-0.69;82.64;99919.56;1757291;81;20877;-68
2021/12/18 04:51:16;;;;;;;1.32;0.93;;;;;;;-0.68;82.22;99909.84;1725635;83;20923;-65
2021/12/18 04:53:44;;;;;;;1.65;0.70;;;;;;;-0.68;81.19;99907.14;1730600;83;21524;-65
2021/12/18 04:56:11;;;;;;;1.37;0.80;;;;;;;-0.62;81.80;99910.80;1730517;83;21914;-66
2021/12/18 04:58:40;;;;;;;1.80;1.10;;;;;;;-0.57;81.35;99911.44;1757161;81;21401;-66
2021/12/18 05:01:07;;;;;;;3.08;1.80;;;;;;;-0.57;81.10;99920.39;1701197;83;21425;-67
2021/12/18 05:03:36;;;;;;;3.12;1.47;;;;;;;-0.55;81.15;99922.86;1725586;83;20947;-67
2021/12/18 05:06:04;;;;;;;3.25;1.35;;;;;;;-0.55;80.24;99925.57;1725486;82;20901;-67
2021/12/18 05:08:30;;;;;;;3.02;1.47;;;;;;;-0.58;80.37;99927.40;1725655;83;21137;-65
2021/12/18 05:10:58;;;;;;;1.42;1.17;;;;;;;-0.59;80.02;99929.27;1730740;83;20940;-67
2021/12/18 05:13:27;;;;;;;4.95;1.35;;;;;;;-0.58;80.50;99928.75;1757416;81;20920;-66
2021/12/18 05:15:54;;;;;;;2.47;1.30;;;;;;;-0.57;80.68;99932.58;1730340;83;21509;-66
2021/12/18 05:18:20;;;;;;;1.90;1.32;;;;;;;-0.58;80.52;99942.30;1731568;81;20982;-67
2021/12/18 05:20:46;;;;;;;2.72;1.60;;;;;;;-0.62;80.89;99943.28;1705700;83;21819;-66
2021/12/18 05:23:12;;;;;;;2.92;1.77;;;;;;;-0.67;81.19;99944.00;1731522;81;20987;-68
2021/12/18 05:25:39;;;;;;;2.90;1.30;;;;;;;-0.67;81.62;99944.52;1757497;81;20848;-66
2021/12/18 05:28:05;;;;;;;3.95;1.62;;;;;;;-0.70;82.02;99941.73;1730550;83;20896;-66
2021/12/18 05:30:32;;;;;;;4.72;2.25;;;;;;;-0.71;82.56;99947.38;1730906;81;20951;-68
2021/12/18 05:32:58;;;;;;;4.00;1.80;;;;;;;-0.90;93.35;99955.59;1700664;83;21763;-67
2021/12/18 05:35:25;;;;;;;2.25;1.40;;;;;;;-0.95;98.75;99960.88;1727219;81;20964;-65
2021/12/18 05:38:04;;;;;;;3.12;1.67;;;;;;;-1.08;100.00;99967.34;1727574;83;21019;-67
2021/12/18 05:40:26;;;;;;;2.50;1.60;;;;;;;-1.14;100.00;99969.08;1726420;83;21027;-69
2021/12/18 05:42:56;;;;;;;5.22;2.20;;;;;;;-1.18;100.00;99971.95;1754226;81;21004;-66
2021/12/18 05:45:23;;;;;;;6.87;2.62;;;;;;;-1.19;100.00;99970.29;1727677;83;21151;-66
2021/12/18 05:47:49;;;;;;;4.90;2.00;;;;;;;-1.21;100.00;99982.69;1754286;81;21067;-67
2021/12/18 05:50:18;;;;;;;3.42;1.80;;;;;;;-1.20;100.00;99983.53;1722744;83;20860;-68
2021/12/18 05:52:45;;;;;;;5.58;2.10;;;;;;;-1.20;100.00;99989.77;1727666;83;21055;-66
2021/12/18 05:55:15;;;;;;;5.53;2.10;;;;;;;-1.19;100.00;99995.47;1727676;83;21039;-67
2021/12/18 05:57:44;;;;;;;4.60;2.45;;;;;;;-1.19;100.00;99993.28;1727872;83;21907;-68
2021/12/18 06:00:16;;;;;;;3.58;2.37;;;;;;;-1.16;100.00;99993.65;1727761;83;21022;-64
2021/12/18 06:02:45;;;;;;;8.53;2.83;;;;;;;-1.11;100.00;99990.27;1754356;81;20976;-66
2021/12/18 06:05:12;;;;;;;7.62;3.90;;;;;;;-1.09;100.00;99996.26;1696279;82;20947;-64
2021/12/18 06:07:58;;;;;;;7.25;4.03;;;;;;;-1.07;100.00;100002.27;1727654;83;20992;-67
2021/12/18 06:10:28;;;;;;;5.42;4.00;;;;;;;-1.07;100.00;100006.33;1754226;81;21136;-66
2021/12/18 06:13:02;;;;;;;7.00;3.65;;;;;;;-1.11;100.00;100000.55;1727674;83;20952;-70
2021/12/18 06:15:28;;;;;;;11.53;4.97;;;;;;;-1.09;100.00;100011.69;1753867;81;20979;-66
2021/12/18 06:17:56;;;;;;;10.72;4.92;;;;;;;-1.09;100.00;100007.63;1722814;83;21413;-68
2021/12/18 06:20:26;;;;;;;10.65;3.33;;;;;;;-1.06;100.00;100003.94;1696355;83;20995;-67
2021/12/18 06:22:54;;;;;;;4.90;2.52;;;;;;;-1.03;100.00;100002.64;1700638;83;21747;-67
2021/12/18 06:25:23;;;;;;;2.62;1.80;;;;;;;-0.99;100.00;99988.95;1722604;83;21544;-66
2021/12/18 06:27:50;;;;;;;2.60;2.00;;;;;;;-0.99;100.00;99992.47;1722685;83;20967;-65
2021/12/18 06:30:18;;;;;;;5.10;1.72;;;;;;;-0.96;100.00;99997.12;1696122;83;20932;-67
2021/12/18 06:32:46;;;;;;;6.58;2.10;;;;;;;-0.98;100.00;99994.66;1727449;82;20849;-67
2021/12/18 06:35:14;;;;;;;3.95;1.72;;;;;;;-0.97;100.00;100002.25;1727454;83;21126;-68
2021/12/18 06:37:43;;;;;;;4.33;2.17;;;;;;;-0.95;100.00;100005.02;1754271;81;21452;-67
2021/12/18 06:40:11;;;;;;;4.22;2.12;;;;;;;-0.92;100.00;100007.80;1700906;83;21112;-65
2021/12/18 06:42:42;;;;;;;6.75;2.27;;;;;;;-0.91;100.00;100002.16;1695935;83;20932;-68
2021/12/18 06:45:13;;;;;;;8.10;3.43;;;;;;;-0.88;100.00;100003.03;1723113;83;21055;-65
2021/12/18 06:47:41;;;;;;;4.58;3.33;;;;;;;-0.83;100.00;100012.33;1700709;83;21142;-65
2021/12/18 06:50:12;;;;;;;5.65;3.25;;;;;;;-0.82;100.00;100017.50;1727210;81;20876;-67
2021/12/18 06:52:40;;;;;;;9.20;4.22;;;;;;;-0.82;100.00;100019.41;1696528;83;21015;-67
2021/12/18 06:55:08;;;;;;;5.33;3.42;;;;;;;-0.82;100.00;100016.70;1754243;81;21429;-68
2021/12/18 06:57:35;;;;;;;5.62;3.12;;;;;;;-0.80;100.00;100022.16;1721680;83;20981;-67
2021/12/18 07:00:09;;;;;;;4.80;2.72;;;;;;;-0.74;100.00;100022.61;1700840;83;21567;-66
2021/12/18 07:02:36;;;;;;;6.53;3.52;;;;;;;-0.72;100.00;100021.54;1754164;81;20944;-66
2021/12/18 07:05:09;;;;;;;9.60;4.00;;;;;;;-0.76;100.00;100016.59;1727172;82;21016;-68
2021/12/18 07:07:37;;;;;;;7.00;3.90;;;;;;;-0.72;100.00;100021.54;1754310;81;20888;-68
2021/12/18 07:10:06;;;;;;;6.75;2.72;;;;;;;-0.65;100.00;100020.91;1726405;81;20928;-66
2021/12/18 07:12:34;;;;;;;5.35;2.92;;;;;;;-0.57;100.00;100015.16;1726495;81;21047;-68
2021/12/18 07:15:07;;;;;;;;;;;;;;;-0.54;100.00;100020.09;1756455;81;21389;-69
2021/12/18 07:17:37;;;;;;;18.27;7.47;;;;;;;-0.60;100.00;100024.27;1754136;81;20155;-68
2021/12/18 07:20:09;;;;;;;6.10;3.80;;;;;;;-0.63;100.00;100029.08;1753955;81;20955;-69
2021/12/18 07:22:36;;;;;;;5.95;2.72;;;;;;;-0.64;100.00;100031.50;1722604;83;20936;-66
2021/12/18 07:25:04;;;;;;;5.50;2.75;;;;;;;-0.68;100.00;100028.95;1721824;83;21038;-67
2021/12/18 07:27:31;;;;;;;9.15;4.15;;;;;;;-0.72;100.00;100031.84;1727474;83;20916;-65
2021/12/18 07:29:59;;;;;;;10.40;4.53;;;;;;;-0.80;100.00;100038.40;1726900;81;20933;-65
2021/12/18 07:32:27;;;;;;;8.03;4.47;;;;;;;-0.84;100.00;100031.81;1717477;83;20936;-66
2021/12/18 07:34:56;;;;;;;10.43;5.08;;;;;;;-0.87;100.00;100035.80;1705548;83;20954;-70
2021/12/18 07:37:24;;;;;;;7.42;4.42;;;;;;;-0.88;100.00;100042.27;1727535;83;21149;-68
2021/12/18 07:39:54;;;;;;;11.55;3.77;;;;;;;-0.86;100.00;100044.75;1727663;83;21543;-71
2021/12/18 07:42:20;;;;;;;5.22;3.40;;;;;;;-0.86;100.00;100037.98;1729073;83;21605;-69
2021/12/18 07:44:51;;;;;;;5.42;3.08;;;;;;;-0.87;100.00;100048.52;1728969;83;21002;-67
2021/12/18 07:47:18;;;;;;;8.63;4.47;;;;;;;-0.86;100.00;100041.52;1727720;83;20971;-67
2021/12/18 07:49:45;;;;;;;6.67;3.33;;;;;;;-0.81;100.00;100045.40;1727990;83;21755;-67
2021/12/18 07:52:13;;;;;;;6.45;3.70;;;;;;;-0.83;100.00;100047.51;1727692;83;20955;-67
2021/12/18 07:54:41;;;;;;;7.50;3.50;;;;;;;-0.90;100.00;100054.37;1728974;83;21078;-66
2021/12/18 07:57:08;;;;;;;6.40;3.05;;;;;;;-0.93;100.00;100056.19;1727711;83;20979;-67
2021/12/18 07:59:37;;;;;;;6.47;3.70;;;;;;;-0.92;100.00;100053.25;1727766;83;20991;-68
2021/12/18 08:02:05;;;;;;;6.25;3.25;;;;;;;-0.92;100.00;100052.45;1728069;83;21582;-67
2021/12/18 08:04:33;;;;;;;9.85;3.20;;;;;;;-0.93;100.00;100057.55;1727555;83;20911;-67
2021/12/18 08:07:02;;;;;;;3.30;2.35;;;;;;;-0.92;100.00;100061.37;1727896;83;21062;-66
2021/12/18 08:09:30;;;;;;;5.80;2.40;;;;;;;-0.90;99.92;100061.13;1729361;83;21026;-67
2021/12/18 08:12:05;;;;;;;4.70;3.12;;;;;;;-0.89;99.83;100056.84;1727667;83;21003;-67
2021/12/18 08:14:32;;;;;;;4.60;2.55;;;;;;;-0.88;99.38;100055.80;1724416;83;21143;-66
2021/12/18 08:16:58;;;;;;;5.97;3.10;;;;;;;-0.89;99.25;100058.74;1729383;83;21526;-67
2021/12/18 08:19:26;;;;;;;5.47;2.58;;;;;;;-0.94;99.10;100064.86;1729159;83;20963;-66
2021/12/18 08:21:54;;;;;;;7.58;2.83;;;;;;;-0.91;100.00;100063.55;1727770;83;21019;-68
2021/12/18 08:24:22;;;;;;;5.75;3.05;;;;;;;-0.86;100.00;100059.62;1729115;83;20934;-67
2021/12/18 08:26:49;;;;;;;5.65;2.60;;;;;;;-0.82;99.82;100062.70;1729090;83;21051;-67
2021/12/18 08:29:19;;;;;;;5.42;2.58;;;;;;;-0.86;100.00;100053.70;1727484;83;21003;-67
2021/12/18 08:31:46;;;;;;;5.83;2.65;;;;;;;-0.87;100.00;100055.29;1733011;81;20935;-66
2021/12/18 08:34:13;;;;;;;6.05;2.75;;;;;;;-0.94;100.00;100052.68;1739401;82;21066;-67
2021/12/18 08:36:39;;;;;;;4.92;2.83;;;;;;;-1.02;100.00;100057.03;1754770;81;21035;-66
2021/12/18 08:39:06;;;;;;;4.78;2.83;;;;;;;-1.08;100.00;100048.49;1726438;83;21117;-68
2021/12/18 08:41:34;;;;;;;4.03;2.40;;;;;;;-1.12;100.00;100054.36;1702176;83;20948;-68
2021/12/18 08:44:00;;;;;;;4.17;2.70;;;;;;;-1.11;100.00;100042.48;1754690;81;21086;-67
2021/12/18 08:46:29;;;;;;;7.33;3.70;;;;;;;-1.09;100.00;100043.59;1726801;83;20978;-68
2021/12/18 08:48:57;;;;;;;5.55;3.35;;;;;;;-1.05;100.00;100039.91;1754817;81;21492;-67
2021/12/18 08:51:29;;;;;;;5.92;3.15;;;;;;;-1.01;100.00;100037.06;1720175;83;21519;-67
2021/12/18 08:53:59;;;;;;;9.33;3.75;;;;;;;-0.96;100.00;100033.66;1724610;83;20860;-66
2021/12/18 08:56:26;;;;;;;11.57;5.03;;;;;;;-0.92;100.00;100033.50;1729239;81;20952;-65
2021/12/18 08:58:55;;;;;;;8.98;4.53;;;;;;;-0.93;100.00;100037.25;1726582;83;20940;-67
2021/12/18 09:01:24;;;;;;;7.53;4.75;;;;;;;-0.88;100.00;100031.97;1754847;81;21476;-68
2021/12/18 09:03:50;;;;;;;10.30;5.35;;;;;;;-0.84;100.00;100028.28;1726240;83;21921;-71
2021/12/18 09:06:17;;;;;;;7.97;4.20;;;;;;;-0.90;100.00;100037.61;1754686;80;20924;-68
2021/12/18 09:08:47;;;;;;;4.83;2.40;;;;;;;-0.94;100.00;100030.20;1725854;83;20961;-67
2021/12/18 09:11:18;;;;;;;8.20;4.75;;;;;;;-1.01;100.00;100039.22;1704735;83;20991;-66
2021/12/18 09:13:45;;;;;;;8.53;4.90;;;;;;;-1.05;100.00;100040.75;1728473;83;21408;-67
2021/12/18 09:16:12;;;;;;;8.68;4.65;;;;;;;-1.10;100.00;100033.84;1754948;81;21059;-66
2021/12/18 09:18:38;;;;;;;5.67;3.45;;;;;;;-1.09;100.00;100038.73;1726570;83;20956;-69
2021/12/18 09:21:05;;;;;;;6.35;4.12;;;;;;;-1.06;100.00;100040.46;1729263;81;21044;-67
2021/12/18 09:23:31;;;;;;;9.03;4.15;;;;;;;-1.03;100.00;100038.64;1726309;83;20979;-66
2021/12/18 09:26:00;;;;;;;6.25;3.92;;;;;;;-1.02;100.00;100038.93;1755095;81;20876;-68
2021/12/18 09:28:30;;;;;;;5.67;3.75;;;;;;;-1.02;100.00;100034.87;1723476;83;21173;-67
2021/12/18 09:30:59;;;;;;;8.38;3.95;;;;;;;-1.04;100.00;100033.47;1722210;83;20896;-68
2021/12/18 09:33:27;;;;;;;11.18;4.58;;;;;;;-1.07;100.00;100023.91;1722811;83;21457;-67
2021/12/18 09:35:53;;;;;;;7.15;4.12;;;;;;;-1.06;100.00;100024.75;1727725;83;20997;-67
2021/12/18 09:38:19;;;;;;;6.53;3.50;;;;;;;-1.03;100.00;100027.82;1726936;81;20996;-66
2021/12/18 09:40:46;;;;;;;7.50;3.58;;;;;;;-0.99;100.00;100032.25;1722623;83;21167;-66
2021/12/18 09:43:15;;;;;;;3.65;2.35;;;;;;;-1.00;100.00;100034.12;1727226;83;20944;-65
2021/12/18 09:45:46;;;;;;;6.45;3.47;;;;;;;-0.97;100.00;100026.60;1726440;81;21058;-66
2021/12/18 09:48:12;;;;;;;8.83;4.55;;;;;;;-0.98;100.00;100024.41;1722870;83;20944;-67
2021/12/18 09:50:42;;;;;;;4.83;3.33;;;;;;;-0.97;100.00;100025.25;1727683;83;20996;-67
2021/12/18 09:53:13;;;;;;;7.90;3.58;;;;;;;-0.95;100.00;100016.35;1754300;81;21150;-68
2021/12/18 09:55:44;;;;;;;5.50;3.27;;;;;;;-0.96;100.00;100017.42;1722550;83;20955;-66
2021/12/18 09:58:12;;;;;;;5.28;3.58;;;;;;;-0.95;100.00;100021.25;1722809;83;21042;-65
2021/12/18 10:00:42;;;;;;;6.42;2.95;;;;;;;-0.95;100.00;100018.53;1727569;83;21515;-66
2021/12/18 10:03:08;;;;;;;7.12;3.37;;;;;;;-0.91;100.00;100009.44;1754688;81;20919;-68
2021/12/18 10:05:38;;;;;;;6.80;3.10;;;;;;;-0.92;100.00;100008.59;1722676;82;21157;-67
2021/12/18 10:08:13;;;;;;;5.85;2.85;;;;;;;-0.89;100.00;100010.03;1727450;83;21023;-66
2021/12/18 10:11:11;;;;;;;5.37;2.72;;;;;;;-0.91;100.00;100013.49;1726895;83;20968;-66
2021/12/18 10:13:58;;;;;;;8.48;4.12;;;;;;;-0.90;100.00;100009.72;1753964;81;20944;-67
2021/12/18 10:16:27;;;;;;;6.45;3.02;;;;;;;-0.88;100.00;100006.27;1727611;83;20888;-64
2021/12/18 10:18:58;;;;;;;6.22;3.65;;;;;;;-0.88;100.00;100000.33;1727431;83;20991;-68
2021/12/18 10:21:28;;;;;;;7.35;3.65;;;;;;;-0.87;100.00;99991.69;1727569;83;20991;-67
2021/12/18 10:23:57;;;;;;;5.05;3.20;;;;;;;-0.86;100.00;99989.27;1727607;83;20943;-66
2021/12/18 10:26:37;;;;;;;7.65;3.70;;;;;;;-0.83;100.00;99981.20;1754476;81;20964;-67
2021/12/18 10:29:35;;;;;;;6.70;2.58;;;;;;;-0.78;100.00;99975.39;1754271;81;20984;-66
2021/12/18 10:32:11;;;;;;;5.12;3.45;;;;;;;-0.74;100.00;99972.53;1754339;81;21723;-66
2021/12/18 10:34:43;;;;;;;6.12;3.60;;;;;;;-0.74;100.00;99969.83;1727558;83;21554;-66
2021/12/18 10:37:30;;;;;;;8.05;3.62;;;;;;;-0.75;98.84;99972.22;1727780;83;20931;-68
2021/12/18 10:40:10;;;;;;;4.35;3.05;;;;;;;-0.71;99.68;99973.10;1700524;83;20892;-67
2021/12/18 10:42:46;;;;;;;7.00;3.30;;;;;;;-0.71;99.64;99966.33;1727997;83;21437;-67
2021/12/18 10:45:25;;;;;;;6.45;2.77;;;;;;;-0.67;99.78;99963.47;1727531;83;21492;-67
2021/12/18 10:48:08;;;;;;;7.05;3.58;;;;;;;-0.64;98.06;99961.64;1754496;81;20924;-68
2021/12/18 10:50:48;;;;;;;5.37;2.12;;;;;;;-0.61;99.35;99963.87;1727740;83;21491;-68
2021/12/18 10:53:23;;;;;;;4.95;2.67;;;;;;;-0.55;96.69;99969.72;1700680;83;20962;-68
2021/12/18 10:56:01;;;;;;;4.75;2.20;;;;;;;-0.55;97.43;99965.66;1754241;81;21496;-66
2021/12/18 10:58:35;;;;;;;4.80;2.55;;;;;;;-0.53;95.37;99964.88;1722627;83;21401;-67
2021/12/18 11:01:13;;;;;;;7.25;3.25;;;;;;;-0.56;94.04;99961.29;1722746;83;21036;-66
2021/12/18 11:03:45;;;;;;;8.30;2.65;;;;;;;-0.56;95.86;99963.99;1727533;83;21034;-67
2021/12/18 11:06:25;;;;;;;5.95;2.98;;;;;;;-0.58;91.96;99959.34;1725176;81;21083;-67
2021/12/18 11:09:11;;;;;;;3.80;2.52;;;;;;;-0.60;92.97;99961.48;1726801;83;21043;-66
2021/12/18 11:14:41;;;;;;;4.85;2.60;;;;;;;-0.63;89.01;99965.98;1700152;83;21059;-66
2021/12/18 11:17:15;;;;;;;3.98;2.40;;;;;;;-0.63;89.65;99965.98;1727417;83;21503;-67
2021/12/18 11:19:42;;;;;;;3.40;1.80;;;;;;;-0.66;86.54;99965.10;1700565;83;21016;-66
2021/12/18 11:22:14;;;;;;;9.03;4.55;;;;;;;-0.68;86.44;99956.41;1754294;81;20964;-68
2021/12/18 11:24:51;;;;;;;10.20;5.78;;;;;;;-0.69;86.84;99962.87;1727951;83;21015;-67
2021/12/18 11:27:20;;;;;;;5.85;3.10;;;;;;;-0.65;86.98;99958.65;1701014;81;20908;-66
2021/12/18 11:30:08;;;;;;;3.27;2.10;;;;;;;-0.64;85.28;99962.47;1754208;81;20956;-67
2021/12/18 11:32:41;;;;;;;3.50;2.15;;;;;;;-0.62;83.71;99965.77;1722413;83;20968;-68
2021/12/18 11:35:13;;;;;;;2.80;1.75;;;;;;;-0.64;83.61;99961.12;1726424;83;20959;-68
2021/12/18 11:37:47;;;;;;;9.98;3.62;;;;;;;-0.64;83.46;99950.81;1726094;81;21627;-68
2021/12/18 11:40:24;;;;;;;6.58;4.05;;;;;;;-0.67;83.11;99944.00;1754070;81;20969;-67
2021/12/18 11:42:55;;;;;;;5.65;3.22;;;;;;;-0.65;83.71;99945.11;1727591;83;21003;-67
2021/12/18 11:45:35;;;;;;;8.90;2.55;;;;;;;-0.65;83.04;99946.47;1754085;81;21000;-67
2021/12/18 11:48:07;;;;;;;7.33;2.85;;;;;;;-0.67;83.26;99932.34;1727342;83;21012;-68
2021/12/18 11:50:39;;;;;;;9.25;3.40;;;;;;;-0.66;83.81;99929.91;1754194;81;21130;-68
2021/12/18 11:53:16;;;;;;;5.62;3.20;;;;;;;-0.63;84.15;99943.80;1726431;81;20884;-70
2021/12/18 11:55:54;;;;;;;7.78;2.90;;;;;;;-0.59;84.55;99944.69;1724800;83;21088;-68
2021/12/18 11:58:33;;;;;;;4.85;2.37;;;;;;;-0.53;84.61;99943.21;1722664;83;21004;-66
2021/12/18 12:01:07;;;;;;;8.63;3.55;;;;;;;-0.54;82.82;99942.93;1726683;81;20986;-67
2021/12/18 12:03:55;;;;;;;7.75;3.90;;;;;;;-0.58;82.86;99931.46;1690776;83;21192;-69
2021/12/18 12:06:37;;;;;;;11.80;4.55;;;;;;;-0.63;82.42;99927.56;1722444;82;20988;-64
2021/12/18 12:09:38;;;;;;;8.40;3.83;;;;;;;-0.67;82.48;99924.22;1754149;81;20877;-67
2021/12/18 12:12:12;;;;;;;8.70;4.30;;;;;;;-0.68;82.89;99928.80;1727345;83;20924;-66
2021/12/18 12:14:42;;;;;;;6.90;3.47;;;;;;;-0.67;83.06;99935.05;1727609;83;20896;-66
2021/12/18 12:17:27;;;;;;;9.38;5.33;;;;;;;-0.68;82.64;99922.58;1753867;81;21233;-68
2021/12/18 12:20:00;;;;;;;5.03;2.70;;;;;;;-0.70;82.82;99923.34;1726318;81;21087;-67
2021/12/18 12:22:42;;;;;;;10.20;4.27;;;;;;;-0.69;83.28;99927.16;1754343;81;20892;-67
2021/12/18 12:25:20;;;;;;;10.68;4.85;;;;;;;-0.67;87.01;99933.17;1754227;81;21481;-64
2021/12/18 12:28:05;;;;;;;10.63;5.37;;;;;;;-0.68;90.47;99927.99;1754233;81;21094;-67
2021/12/18 12:30:43;;;;;;;9.88;5.20;;;;;;;-0.66;91.19;99937.52;1751335;81;21788;-66